createdAt,value
2018-12-14T00:02:27.437Z,49.23
2018-12-14T00:04:57.219Z,50.80
2018-12-14T00:07:28.404Z,49.07
2018-12-14T00:09:58.163Z,46.17
2018-12-14T00:12:28.678Z,42.30
2018-12-14T00:15:00.172Z,43.23
2018-12-14T00:17:33.069Z,40.33
2018-12-14T00:20:06.322Z,45.63
2018-12-14T00:22:37.320Z,42.67
2018-12-14T00:25:07.904Z,46.30
2018-12-14T00:27:38.280Z,44.03
2018-12-14T00:30:09.882Z,42.87
2018-12-14T00:32:42.340Z,44.47
2018-12-14T00:35:13.987Z,39.30
2018-12-14T00:37:43.770Z,41.30
2018-12-14T00:40:14.224Z,43.83
2018-12-14T00:42:45.138Z,44.37
2018-12-14T00:45:15.990Z,42.73
2018-12-14T00:47:46.828Z,40.83
2018-12-14T00:50:17.554Z,42.10
2018-12-14T00:52:48.136Z,42.10
2018-12-14T00:55:19.688Z,36.43
2018-12-14T00:57:49.495Z,40.70
2018-12-14T01:00:20.306Z,39.50
2018-12-14T01:02:51.226Z,35.00
2018-12-14T01:05:21.438Z,38.33
2018-12-14T01:07:51.973Z,38.70
2018-12-14T01:10:22.462Z,37.90
2018-12-14T01:12:52.651Z,36.73
2018-12-14T01:15:24.313Z,35.13
2018-12-14T01:17:54.256Z,36.33
2018-12-14T01:20:24.636Z,39.93
2018-12-14T01:22:55.484Z,44.47
2018-12-14T01:25:26.192Z,38.10
2018-12-14T01:27:56.702Z,39.77
2018-12-14T01:30:27.283Z,39.60
2018-12-14T01:32:57.974Z,35.03
2018-12-14T01:35:28.521Z,35.07
2018-12-14T01:37:59.258Z,32.13
2018-12-14T01:40:29.982Z,35.20
2018-12-14T01:43:00.571Z,28.97
2018-12-14T01:45:30.656Z,34.30
2018-12-14T01:48:01.573Z,36.23
2018-12-14T01:50:32.817Z,30.87
2018-12-14T01:53:03.686Z,35.80
2018-12-14T01:55:34.231Z,31.83
2018-12-14T01:58:04.771Z,34.10
2018-12-14T02:00:40.271Z,34.27
2018-12-14T02:03:13.870Z,31.57
2018-12-14T02:05:43.715Z,33.17
2018-12-14T02:08:13.809Z,34.30
2018-12-14T02:10:44.640Z,38.00
2018-12-14T02:13:15.548Z,31.90
2018-12-14T02:15:46.203Z,32.20
2018-12-14T02:18:17.165Z,30.30
2018-12-14T02:20:49.730Z,34.30
2018-12-14T02:23:21.044Z,33.97
2018-12-14T02:25:52.824Z,33.83
2018-12-14T02:28:25.604Z,32.17
2018-12-14T02:30:55.609Z,34.23
2018-12-14T02:33:30.218Z,37.87
2018-12-14T02:36:03.100Z,32.53
2018-12-14T02:38:33.112Z,26.00
2018-12-14T02:41:04.020Z,29.87
2018-12-14T02:43:35.393Z,30.20
2018-12-14T02:46:05.175Z,35.33
2018-12-14T02:48:35.921Z,33.63
2018-12-14T02:51:07.146Z,31.03
2018-12-14T02:53:38.056Z,33.13
2018-12-14T02:56:07.890Z,37.70
2018-12-14T02:58:42.606Z,40.87
2018-12-14T03:01:13.208Z,35.47
2018-12-14T03:03:43.673Z,34.10
2018-12-14T03:06:14.095Z,37.23
2018-12-14T03:08:45.315Z,36.83
2018-12-14T03:11:16.176Z,35.67
2018-12-14T03:13:46.809Z,39.03
2018-12-14T03:16:17.311Z,34.03
2018-12-14T03:18:49.072Z,40.23
2018-12-14T03:21:21.662Z,39.17
2018-12-14T03:23:54.322Z,35.10
2018-12-14T03:26:25.080Z,33.83
2018-12-14T03:28:55.023Z,40.80
2018-12-14T03:31:26.951Z,37.93
2018-12-14T03:33:58.528Z,41.03
2018-12-14T03:36:29.061Z,39.33
2018-12-14T03:39:01.247Z,36.90
2018-12-14T03:41:32.092Z,37.43
2018-12-14T03:44:02.452Z,33.67
2018-12-14T03:46:33.249Z,37.00
2018-12-14T03:49:04.275Z,38.43
2018-12-14T03:51:34.160Z,36.23
2018-12-14T03:54:05.281Z,36.17
2018-12-14T03:56:36.097Z,33.97
2018-12-14T03:59:06.119Z,35.73
2018-12-14T04:01:37.369Z,36.60
2018-12-14T04:04:08.198Z,31.67
2018-12-14T04:06:39.431Z,33.97
2018-12-14T04:09:10.335Z,35.97
2018-12-14T04:11:41.148Z,39.20
2018-12-14T04:14:11.240Z,35.73
2018-12-14T04:16:42.519Z,32.67
2018-12-14T04:19:13.300Z,33.00
2018-12-14T04:21:44.501Z,42.33
2018-12-14T04:24:14.331Z,39.40
2018-12-14T04:26:45.092Z,44.73
2018-12-14T04:29:15.299Z,38.67
2018-12-14T04:31:46.347Z,41.77
2018-12-14T04:34:16.231Z,41.90
2018-12-14T04:36:45.897Z,40.43
2018-12-14T04:39:17.933Z,40.53
2018-12-14T04:41:48.687Z,47.57
2018-12-14T04:44:19.650Z,44.03
2018-12-14T04:46:49.458Z,53.27
2018-12-14T04:49:21.152Z,43.97
2018-12-14T04:51:51.157Z,49.60
2018-12-14T04:54:21.939Z,48.50
2018-12-14T04:56:52.712Z,47.50
2018-12-14T04:59:23.236Z,46.27
2018-12-14T05:01:53.998Z,47.30
2018-12-14T05:04:24.441Z,51.20
2018-12-14T05:06:56.112Z,49.20
2018-12-14T05:09:26.415Z,50.47
2018-12-14T05:11:57.928Z,46.00
2018-12-14T05:14:28.194Z,52.77
2018-12-14T05:17:00.129Z,49.07
2018-12-14T05:19:29.766Z,46.27
2018-12-14T05:22:01.191Z,47.63
2018-12-14T05:24:31.808Z,46.50
2018-12-14T05:27:01.859Z,50.53
2018-12-14T05:29:33.276Z,47.27
2018-12-14T05:32:03.648Z,55.20
2018-12-14T05:34:33.567Z,54.47
2018-12-14T05:37:04.866Z,47.43
2018-12-14T05:39:36.137Z,49.17
2018-12-14T05:42:05.916Z,59.33
2018-12-14T05:44:36.767Z,48.23
2018-12-14T05:47:07.295Z,48.47
2018-12-14T05:49:37.559Z,55.37
2018-12-14T05:52:08.616Z,51.43
2018-12-14T05:54:39.590Z,49.27
2018-12-14T05:57:09.971Z,53.83
2018-12-14T05:59:40.468Z,54.33
2018-12-14T06:02:11.946Z,54.03
2018-12-14T06:04:44.913Z,57.13
2018-12-14T06:07:15.855Z,50.77
2018-12-14T06:09:46.812Z,51.10
2018-12-14T06:12:20.511Z,47.17
2018-12-14T06:14:52.658Z,47.83
2018-12-14T06:17:25.056Z,50.60
2018-12-14T06:19:56.783Z,46.80
2018-12-14T06:22:30.619Z,54.03
2018-12-14T06:25:03.075Z,57.50
2018-12-14T06:27:33.771Z,51.13
2018-12-14T06:30:05.879Z,55.60
2018-12-14T06:32:38.280Z,48.67
2018-12-14T06:35:08.991Z,54.67
2018-12-14T06:37:38.962Z,54.70
2018-12-14T06:40:10.618Z,51.27
2018-12-14T06:42:40.131Z,44.40
2018-12-14T06:45:10.458Z,57.13
2018-12-14T06:47:42.970Z,56.63
2018-12-14T06:50:14.796Z,64.90
2018-12-14T06:52:46.102Z,54.77
2018-12-14T06:55:15.979Z,58.37
2018-12-14T06:57:46.655Z,57.50
2018-12-14T07:00:18.463Z,61.97
2018-12-14T07:02:50.294Z,55.57
2018-12-14T07:05:21.585Z,57.90
2018-12-14T07:07:53.611Z,52.63
2018-12-14T07:10:25.728Z,50.60
2018-12-14T07:12:58.267Z,51.83
2018-12-14T07:15:30.085Z,52.00
2018-12-14T07:18:00.660Z,54.03
2018-12-14T07:20:31.629Z,63.13
2018-12-14T07:23:02.043Z,60.70
2018-12-14T07:25:32.337Z,59.00
2018-12-14T07:28:03.129Z,55.10
2018-12-14T07:30:34.311Z,57.60
2018-12-14T07:33:06.229Z,52.40
2018-12-14T07:35:42.312Z,58.90
2018-12-14T07:38:14.986Z,53.70
2018-12-14T07:40:46.227Z,59.37
2018-12-14T07:43:17.816Z,68.40
2018-12-14T07:45:49.456Z,75.47
2018-12-14T07:48:21.308Z,66.27
2018-12-14T07:50:53.560Z,72.20
2018-12-14T07:53:25.385Z,74.90
2018-12-14T07:55:55.806Z,74.77
2018-12-14T07:58:26.153Z,78.23
2018-12-14T08:00:57.118Z,71.27
2018-12-14T08:03:27.623Z,68.60
2018-12-14T08:05:58.798Z,77.07
2018-12-14T08:08:29.320Z,69.80
2018-12-14T08:10:59.826Z,74.33
2018-12-14T08:13:34.793Z,73.30
2018-12-14T08:16:08.361Z,76.60
2018-12-14T08:18:38.205Z,70.67
2018-12-14T08:21:10.689Z,75.00
2018-12-14T08:23:43.002Z,71.30
2018-12-14T08:26:12.929Z,80.23
2018-12-14T08:28:45.351Z,77.47
2018-12-14T08:31:15.381Z,65.43
2018-12-14T08:33:46.512Z,67.93
2018-12-14T08:36:16.595Z,74.20
2018-12-14T08:38:46.999Z,74.80
2018-12-14T08:41:23.980Z,66.40
2018-12-14T08:43:55.826Z,69.70
2018-12-14T08:46:25.765Z,60.80
2018-12-14T08:48:55.607Z,67.57
2018-12-14T08:51:26.794Z,63.13
2018-12-14T08:53:57.294Z,72.20
2018-12-14T08:56:27.961Z,81.73
2018-12-14T08:58:58.321Z,74.27
2018-12-14T09:01:29.168Z,71.47
2018-12-14T09:03:59.793Z,76.97
2018-12-14T09:06:30.750Z,62.90
2018-12-14T09:09:08.898Z,62.50
2018-12-14T09:11:40.639Z,61.17
2018-12-14T09:14:12.328Z,65.53
2018-12-14T09:16:46.098Z,63.07
2018-12-14T09:19:16.386Z,75.40
2018-12-14T09:21:46.586Z,60.77
2018-12-14T09:24:17.681Z,64.53
2018-12-14T09:26:51.118Z,61.47
2018-12-14T09:29:21.614Z,65.37
2018-12-14T09:31:52.721Z,68.87
2018-12-14T09:34:23.640Z,64.47
2018-12-14T09:36:54.193Z,67.37
2018-12-14T09:39:24.542Z,65.73
2018-12-14T09:41:55.964Z,62.73
2018-12-14T09:44:26.810Z,61.30
2018-12-14T09:46:57.579Z,73.90
2018-12-14T09:49:28.147Z,72.90
2018-12-14T09:51:58.919Z,76.57
2018-12-14T09:54:28.829Z,77.00
2018-12-14T09:57:00.631Z,62.93
2018-12-14T09:59:30.443Z,65.13
2018-12-14T10:02:01.203Z,58.20
2018-12-14T10:04:31.885Z,62.87
2018-12-14T10:07:01.848Z,60.87
2018-12-14T10:09:31.706Z,56.13
2018-12-14T10:12:03.568Z,51.83
2018-12-14T10:14:33.961Z,52.03
2018-12-14T10:17:04.882Z,55.40
2018-12-14T10:19:36.108Z,55.20
2018-12-14T10:22:06.805Z,48.00
2018-12-14T10:24:37.369Z,46.13
2018-12-14T10:27:08.060Z,53.50
2018-12-14T10:29:38.677Z,45.77
2018-12-14T10:32:09.380Z,45.43
2018-12-14T10:34:39.089Z,45.37
2018-12-14T10:37:10.860Z,43.83
2018-12-14T10:39:41.190Z,45.10
2018-12-14T10:42:11.961Z,52.30
2018-12-14T10:44:43.057Z,60.03
2018-12-14T10:47:14.209Z,52.10
2018-12-14T10:49:48.863Z,47.20
2018-12-14T10:52:23.236Z,50.90
2018-12-14T10:54:53.087Z,49.97
2018-12-14T10:57:23.160Z,48.43
2018-12-14T10:59:52.913Z,51.77
2018-12-14T11:02:25.159Z,50.27
2018-12-14T11:04:57.040Z,52.23
2018-12-14T11:07:29.187Z,53.67
2018-12-14T11:10:01.552Z,48.03
2018-12-14T11:12:32.653Z,57.70
2018-12-14T11:15:04.061Z,55.23
2018-12-14T11:17:36.444Z,55.53
2018-12-14T11:20:09.166Z,54.73
2018-12-14T11:22:41.718Z,55.10
2018-12-14T11:25:14.320Z,57.80
2018-12-14T11:27:45.904Z,53.93
2018-12-14T11:30:16.153Z,59.00
2018-12-14T11:32:46.410Z,55.83
2018-12-14T11:35:17.281Z,56.00
2018-12-14T11:37:47.349Z,61.90
2018-12-14T11:40:19.899Z,66.03
2018-12-14T11:42:50.411Z,53.10
2018-12-14T11:45:21.499Z,55.93
2018-12-14T11:47:53.506Z,56.20
2018-12-14T11:50:31.360Z,52.43
2018-12-14T11:53:02.324Z,56.57
2018-12-14T11:55:33.029Z,48.73
2018-12-14T11:58:04.479Z,49.00
2018-12-14T12:00:34.094Z,51.60
2018-12-14T12:03:04.867Z,51.93
2018-12-14T12:05:35.418Z,54.30
2018-12-14T12:08:06.079Z,47.53
2018-12-14T12:10:36.381Z,55.87
2018-12-14T12:13:07.200Z,53.67
2018-12-14T12:15:37.604Z,51.13
2018-12-14T12:18:08.431Z,47.90
2018-12-14T12:20:38.955Z,47.17
2018-12-14T12:23:09.346Z,45.00
2018-12-14T12:25:40.712Z,43.23
2018-12-14T12:28:11.127Z,50.90
2018-12-14T12:30:41.512Z,50.30
2018-12-14T12:33:12.416Z,49.03
2018-12-14T12:35:43.174Z,51.03
2018-12-14T12:38:14.111Z,50.73
2018-12-14T12:40:44.584Z,53.23
2018-12-14T12:43:15.480Z,51.23
2018-12-14T12:45:46.115Z,50.07
2018-12-14T12:48:16.609Z,58.07
2018-12-14T12:50:46.979Z,61.27
2018-12-14T12:53:20.039Z,66.33
2018-12-14T12:55:53.171Z,53.57
2018-12-14T12:58:26.964Z,56.63
2018-12-14T13:01:00.269Z,50.37
2018-12-14T13:03:31.923Z,50.77
2018-12-14T13:06:03.884Z,47.93
2018-12-14T13:08:34.700Z,48.10
2018-12-14T13:11:04.857Z,40.03
2018-12-14T13:13:35.704Z,45.33
2018-12-14T13:16:06.648Z,46.50
2018-12-14T13:18:38.745Z,45.60
2018-12-14T13:21:10.901Z,44.37
2018-12-14T13:23:40.955Z,45.83
2018-12-14T13:26:12.103Z,42.33
2018-12-14T13:28:42.517Z,41.97
2018-12-14T13:31:12.997Z,43.83
2018-12-14T13:33:43.747Z,41.93
2018-12-14T13:36:13.789Z,47.47
2018-12-14T13:38:45.670Z,40.83
2018-12-14T13:41:15.525Z,42.47
2018-12-14T13:43:45.877Z,43.93
2018-12-14T13:46:16.001Z,41.63
2018-12-14T13:48:47.115Z,43.03
2018-12-14T13:51:19.445Z,39.80
2018-12-14T13:53:50.011Z,43.87
2018-12-14T13:56:24.713Z,43.80
2018-12-14T13:58:57.185Z,39.23
2018-12-14T14:01:28.237Z,38.47
2018-12-14T14:03:57.988Z,44.33
2018-12-14T14:06:29.349Z,40.67
2018-12-14T14:08:59.916Z,45.13
2018-12-14T14:11:29.871Z,46.50
2018-12-14T14:14:01.100Z,40.63
2018-12-14T14:16:30.808Z,46.97
2018-12-14T14:19:01.886Z,46.40
2018-12-14T14:21:32.468Z,44.33
2018-12-14T14:24:03.585Z,42.87
2018-12-14T14:26:36.010Z,45.90
2018-12-14T14:29:07.100Z,48.90
2018-12-14T14:31:37.949Z,58.87
2018-12-14T14:34:09.023Z,55.07
2018-12-14T14:36:38.976Z,46.73
2018-12-14T14:39:09.407Z,46.60
2018-12-14T14:41:40.880Z,52.87
2018-12-14T14:44:14.303Z,52.77
2018-12-14T14:46:45.154Z,51.47
2018-12-14T14:49:14.992Z,51.90
2018-12-14T14:51:45.408Z,70.00
2018-12-14T14:54:16.429Z,58.70
2018-12-14T14:56:46.773Z,55.60
2018-12-14T14:59:21.325Z,76.03
2018-12-14T15:01:51.422Z,60.47
2018-12-14T15:04:27.743Z,49.47
2018-12-14T15:06:59.344Z,49.83
2018-12-14T15:09:35.563Z,52.97
2018-12-14T15:12:06.291Z,55.13
2018-12-14T15:14:37.176Z,52.20
2018-12-14T15:17:08.966Z,51.57
2018-12-14T15:19:38.922Z,53.70
2018-12-14T15:22:09.481Z,50.80
2018-12-14T15:24:41.032Z,48.03
2018-12-14T15:27:13.709Z,46.17
2018-12-14T15:29:45.167Z,46.97
2018-12-14T15:32:15.843Z,44.87
2018-12-14T15:34:45.684Z,49.27
2018-12-14T15:37:16.650Z,55.70
2018-12-14T15:39:51.123Z,48.83
2018-12-14T15:42:24.538Z,48.10
2018-12-14T15:44:54.868Z,46.47
2018-12-14T15:47:28.344Z,48.63
2018-12-14T15:49:58.332Z,45.03
2018-12-14T15:52:30.027Z,49.73
2018-12-14T15:55:00.202Z,45.70
2018-12-14T15:57:30.891Z,50.40
2018-12-14T16:00:02.369Z,49.73
2018-12-14T16:02:33.457Z,48.30
2018-12-14T16:05:06.356Z,53.43
2018-12-14T16:07:36.471Z,47.77
2018-12-14T16:10:07.563Z,51.07
2018-12-14T16:12:39.366Z,53.47
2018-12-14T16:15:10.379Z,51.27
2018-12-14T16:17:40.644Z,51.80
2018-12-14T16:20:11.411Z,50.60
2018-12-14T16:22:41.491Z,59.67
2018-12-14T16:25:11.486Z,51.50
2018-12-14T16:27:42.643Z,52.37
2018-12-14T16:30:12.552Z,55.33
2018-12-14T16:32:44.139Z,53.93
2018-12-14T16:35:13.856Z,55.43
2018-12-14T16:37:43.780Z,51.60
2018-12-14T16:40:14.509Z,54.80
2018-12-14T16:42:44.045Z,57.97
2018-12-14T16:45:26.293Z,55.80
2018-12-14T16:47:52.139Z,61.80
2018-12-14T16:50:22.383Z,50.33
2018-12-14T16:52:51.913Z,53.07
2018-12-14T16:55:22.623Z,62.50
2018-12-14T16:57:57.251Z,60.43
2018-12-14T17:00:26.791Z,49.10
2018-12-14T17:02:57.337Z,61.97
2018-12-14T17:05:26.970Z,55.13
2018-12-14T17:07:57.241Z,59.57
2018-12-14T17:10:26.836Z,63.50
2018-12-14T17:12:57.317Z,58.30
2018-12-14T17:15:33.014Z,65.07
2018-12-14T17:17:58.557Z,65.07
2018-12-14T17:20:28.907Z,61.53
2018-12-14T17:22:58.529Z,74.37
2018-12-14T17:25:32.320Z,60.40
2018-12-14T17:28:01.794Z,61.23
2018-12-14T17:30:31.703Z,79.83
2018-12-14T17:33:01.868Z,67.27
2018-12-14T17:35:32.168Z,66.20
2018-12-14T17:38:02.886Z,71.63
2018-12-14T17:40:33.081Z,68.73
2018-12-14T17:43:03.357Z,64.10
2018-12-14T17:45:32.921Z,63.30
2018-12-14T17:48:02.557Z,65.50
2018-12-14T17:50:32.087Z,55.53
2018-12-14T17:53:02.097Z,59.47
2018-12-14T17:55:31.683Z,65.80
2018-12-14T17:58:01.727Z,60.47
2018-12-14T18:00:35.638Z,54.07
2018-12-14T18:03:05.919Z,49.00
2018-12-14T18:05:39.832Z,49.83
2018-12-14T18:08:10.056Z,49.50
2018-12-14T18:10:40.373Z,58.73
2018-12-14T18:13:10.914Z,56.50
2018-12-14T18:15:46.302Z,55.37
2018-12-14T18:18:13.119Z,57.27
2018-12-14T18:20:42.766Z,66.90
2018-12-14T18:23:12.669Z,61.00
2018-12-14T18:25:42.970Z,54.03
2018-12-14T18:28:13.495Z,57.43
2018-12-14T18:30:43.313Z,52.40
2018-12-14T18:33:12.959Z,56.80
2018-12-14T18:35:43.028Z,54.80
2018-12-14T18:38:14.943Z,62.83
2018-12-14T18:40:44.785Z,71.00
2018-12-14T18:43:14.713Z,54.87
2018-12-14T18:45:45.191Z,56.80
2018-12-14T18:48:19.287Z,60.57
2018-12-14T18:50:48.860Z,56.53
2018-12-14T18:53:18.372Z,61.60
2018-12-14T18:55:48.415Z,66.83
2018-12-14T18:58:18.021Z,74.37
2018-12-14T19:00:48.799Z,63.03
2018-12-14T19:03:18.947Z,68.00
2018-12-14T19:05:48.537Z,66.73
2018-12-14T19:08:18.496Z,65.00
2018-12-14T19:10:48.072Z,75.40
2018-12-14T19:13:17.744Z,66.17
2018-12-14T19:15:48.070Z,66.43
2018-12-14T19:18:18.306Z,56.07
2018-12-14T19:20:48.453Z,60.10
2018-12-14T19:23:20.010Z,59.40
2018-12-14T19:25:50.825Z,66.20
2018-12-14T19:28:22.469Z,75.80
2018-12-14T19:30:56.629Z,73.00
2018-12-14T19:33:26.231Z,76.30
2018-12-14T19:35:56.081Z,75.07
2018-12-14T19:38:25.612Z,76.90
2018-12-14T19:40:55.209Z,69.07
2018-12-14T19:43:24.897Z,70.90
2018-12-14T19:45:55.262Z,74.93
2018-12-14T19:48:31.799Z,63.43
2018-12-14T19:51:02.177Z,71.30
2018-12-14T19:53:32.292Z,67.07
2018-12-14T19:56:01.858Z,73.93
2018-12-14T19:58:31.899Z,69.60
2018-12-14T20:01:01.939Z,79.23
2018-12-14T20:03:32.963Z,71.93
2018-12-14T20:06:03.452Z,81.27
2018-12-14T20:08:33.030Z,85.47
2018-12-14T20:11:02.633Z,74.20
2018-12-14T20:13:32.417Z,79.07
2018-12-14T20:16:02.513Z,81.57
2018-12-14T20:18:32.266Z,73.20
2018-12-14T20:21:01.899Z,85.80
2018-12-14T20:23:31.634Z,81.47
2018-12-14T20:26:01.122Z,78.80
2018-12-14T20:28:30.921Z,78.13
2018-12-14T20:31:00.972Z,78.53
2018-12-14T20:33:31.546Z,78.53
2018-12-14T20:36:01.802Z,78.87
2018-12-14T20:38:31.326Z,87.90
2018-12-14T20:41:01.746Z,84.40
2018-12-14T20:43:31.335Z,76.23
2018-12-14T20:46:04.867Z,87.30
2018-12-14T20:48:36.536Z,83.80
2018-12-14T20:51:07.304Z,77.53
2018-12-14T20:53:38.731Z,78.90
2018-12-14T20:56:08.644Z,74.13
2018-12-14T20:58:38.590Z,75.27
2018-12-14T21:01:08.493Z,87.80
2018-12-14T21:03:38.795Z,89.93
2018-12-14T21:06:10.362Z,79.13
2018-12-14T21:08:41.405Z,85.60
2018-12-14T21:11:17.249Z,71.93
2018-12-14T21:13:47.071Z,87.03
2018-12-14T21:16:18.676Z,77.10
2018-12-14T21:18:49.257Z,84.03
2018-12-14T21:21:23.674Z,84.33
2018-12-14T21:23:57.468Z,88.33
2018-12-14T21:26:27.125Z,80.97
2018-12-14T21:28:58.578Z,84.53
2018-12-14T21:31:28.619Z,83.07
2018-12-14T21:34:00.778Z,87.43
2018-12-14T21:36:32.851Z,81.83
2018-12-14T21:39:04.927Z,89.70
2018-12-14T21:41:34.949Z,96.43
2018-12-14T21:44:04.528Z,74.73
2018-12-14T21:46:34.325Z,85.40
2018-12-14T21:49:05.612Z,77.80
2018-12-14T21:51:36.016Z,81.00
2018-12-14T21:54:06.373Z,83.80
2018-12-14T21:56:36.003Z,105.70
2018-12-14T21:59:07.273Z,83.40
2018-12-14T22:01:37.252Z,89.07
2018-12-14T22:04:06.934Z,93.37
2018-12-14T22:06:36.971Z,87.27
2018-12-14T22:09:09.670Z,88.20
2018-12-14T22:11:44.276Z,90.43
2018-12-14T22:14:14.504Z,89.83
2018-12-14T22:16:44.876Z,80.67
2018-12-14T22:19:14.819Z,92.47
2018-12-14T22:21:44.633Z,89.57
2018-12-14T22:24:14.307Z,91.40
2018-12-14T22:26:44.691Z,86.17
2018-12-14T22:29:14.411Z,87.67
2018-12-14T22:31:43.965Z,83.13
2018-12-14T22:34:18.678Z,83.03
2018-12-14T22:36:48.511Z,98.50
2018-12-14T22:39:21.647Z,90.80
2018-12-14T22:41:51.259Z,82.93
2018-12-14T22:44:22.442Z,87.20
2018-12-14T22:46:52.425Z,85.23
2018-12-14T22:49:23.025Z,88.23
2018-12-14T22:51:53.254Z,90.87
2018-12-14T22:54:27.153Z,86.53
2018-12-14T22:56:57.021Z,81.97
2018-12-14T22:59:26.891Z,84.80
2018-12-14T23:01:56.478Z,82.97
2018-12-14T23:04:27.072Z,77.67
2018-12-14T23:07:04.184Z,87.80
2018-12-14T23:09:38.142Z,82.97
2018-12-14T23:12:16.199Z,80.03
2018-12-14T23:14:47.642Z,83.40
2018-12-14T23:19:56.400Z,83.10
2018-12-14T23:22:25.951Z,90.40
2018-12-14T23:24:56.978Z,73.90
2018-12-14T23:27:26.608Z,79.70
2018-12-14T23:29:57.740Z,90.67
2018-12-14T23:32:28.143Z,84.00
2018-12-14T23:34:57.767Z,87.47
2018-12-14T23:37:27.315Z,83.57
2018-12-14T23:39:57.209Z,89.47
2018-12-14T23:42:27.593Z,95.80
2018-12-14T23:44:57.218Z,84.83
2018-12-14T23:47:26.906Z,83.87
2018-12-14T23:49:56.471Z,84.43
2018-12-14T23:52:29.696Z,87.90
2018-12-14T23:54:59.663Z,75.33
2018-12-14T23:57:29.383Z,77.43
